AirNav   Pilot Hours Calculator
 
 1328 users online  

IA06 Sioux Center Health Heliport
Sioux Center, Iowa, USA

GOING TO SIOUX CENTER?


FAA INFORMATION EFFECTIVE 30 JANUARY 2020

Location

FAA Identifier: IA06
Lat/Long: 43-04-07.5800N 096-09-33.3300W
43-04.126333N 096-09.555500W
43.0687722,-96.1592583
(estimated)
Elevation: 1397 ft. / 426 m (estimated)
From city: 2 miles SE of SIOUX CENTER, IA
Time zone: UTC -6 (UTC -5 during Daylight Saving Time)
Zip code: 51250

Heliport Operations

Heliport use: Private use. Permission required prior to landing
Activation date: 02/2015
Control tower: no
ARTCC: MINNEAPOLIS CENTER
FSS: FORT DODGE FLIGHT SERVICE STATION
Attendance: 
Wind indicator: lighted
Segmented circle: no

Heliport Communications

WX AWOS-3P at SXK (5 nm S): 120.075 (712-567-1005)
WX AWOS-3 at SHL (17 nm NE): 119.775 (712-324-5159)
WX AWOS-3P at LRJ (18 nm S): 120.975 (712-546-8439)

Heliport Services

Runway Information

Helipad H1

Dimensions: 40 x 40 ft. / 12 x 12 m
Surface: concrete, in good condition
Runway edge lights: PERI
NTSD LOW MOUNTED FLOOD LIGHTS ALSO ILLUMIATE TLOF PERIMETER
Latitude: 43-04.126333N
Longitude: 096-09.555500W
Elevation: 1397.0 ft.
Traffic pattern: leftleft

Heliport Ownership and Management from official FAA records

Ownership: Privately-owned
Owner: SIOUX CENTER HEALTH
1101 9TH STREET SE
SIOUX CENTER, IA 51250
Phone 712-722-1271
Manager: CORY NELSON
1101 9TH STREET SE
SIOUX CENTER, IA 51250
Phone 712-722-1271
EMAIL ADDRESS: KAYLEEN.LEE@SIOUXCENTERHEALTH.ORG (ALL LOWER CASE)

Additional Remarks

MOBILE MRI EQUIP MAY BE WIHTIN 500 FT OF H1. CNTC HOSPITAL PRIOR TO ARRIVAL
FOR CD CTC MINNEAPOLIS ARTCC AT 651-463-5588.

Instrument Procedures

There are no published instrument procedures at IA06.

Some nearby airports with instrument procedures:

KSXK - Sioux County Regional Airport (5 nm S)
KORC - Orange City Municipal Airport (6 nm SE)
KSHL - Sheldon Regional Airport (17 nm NE)
KLRJ - Le Mars Municipal Airport (18 nm S)
KRRQ - Rock Rapids Municipal Airport (23 nm N)
 
Loc | Ops | Rwys | IFR | FBO | Links
Com | Nav | Svcs | Stats | Notes
Aerial photo
No photo
 
Airport distance calculator
Flying to Sioux Center Health Heliport? Find the distance to fly.

From to IA06

Sunrise and sunset
Times for 17-Feb-2020
 Local
(UTC-6)
 Zulu
(UTC)
Morning civil twilight06:5112:51
Sunrise07:2013:20
Sunset17:5723:57
Evening civil twilight18:2600:26

Current date and time
Zulu (UTC)  17-Feb-2020 15:37:18
Local (UTC-6)  17-Feb-2020 09:37:18
 
METAR
KSXK 
5nm S 
171515Z AUTO 18006KT 5SM BR OVC005 02/02 A2978 RMK AO2
KSHL 
17nm NE 
171515Z AUTO 13007G12KT 5SM BR FEW006 SCT018 OVC034 02/02 A2976 RMK AO2
KLRJ 
18nm S 
171515Z AUTO 18007KT 7SM BKN007 OVC017 03/03 A2978 RMK AO2
TAF
KFSD 
40nm NW 
171120Z 1712/1812 09005KT 6SM BR BKN070 FM171300 07005KT 4SM BR OVC008 FM171700 36012G20KT 4SM BR OVC004 FM172100 35013G23KT P6SM OVC007 FM180200 33011G18KT P6SM BKN014 FM180400 33010KT P6SM BKN021 FM181000 33007KT P6SM SCT025
KSUX 
42nm S 
171120Z 1712/1812 13005KT P6SM OVC060 FM171500 29005KT P6SM OVC029 FM171700 31011G17KT 6SM BR BKN029 FM171800 32015G25KT P6SM BKN018 FM180600 33011KT P6SM SCT019
NOTAMs
Click for the latest NOTAMs
NOTAMs are issued by the DoD/FAA and will open in a separate window not controlled by AirNav.

 

 
 

Would you like to see your business listed on this page?

 If your business provides an interesting product or service to pilots, flight crews, aircraft, or users of the Sioux Center Health Heliport, you should consider listing it here.  To start the listing process, click on the button below
 
Add a business
 

Other Pages about Sioux Center Health Heliport

Update a link
 
Copyright © AirNav, LLC. All rights reserved. Privacy Policy  Contact